Terminal Aerodrome Forecast
Issued by NWS Grand Junction, CO

Home | Current Version | Previous Version | Text Only | Print | Product List | Glossary On
Versions: 1 2 3 4 5 6 7 8 9 10 11 12 13 14 15 16 17 18 19 20 21 22 23
000
FTUS45 KGJT 141120
TAFGJT
TAF
KGJT 141120Z 1412/1512 00000KT P6SM SCT150 OVC250
     FM141500 VRB03KT P6SM SCT050 BKN150
     FM141900 34005KT P6SM BKN070
     FM150200 02005KT P6SM OVC070=

USA.gov is the U.S. government's official web portal to all federal, state and local government web resources and services.